sensor_id;sensor_type;location;lat;lon;timestamp;P1;durP1;ratioP1;P2;durP2;ratioP2
42110;SDS011;27766;52.174;5.456;2023-05-10T00:01:51;36.67;;;21.17;;
42110;SDS011;27766;52.174;5.456;2023-05-10T00:04:19;35.30;;;20.38;;
42110;SDS011;27766;52.174;5.456;2023-05-10T00:06:46;39.45;;;21.98;;
42110;SDS011;27766;52.174;5.456;2023-05-10T00:09:13;36.33;;;21.73;;
42110;SDS011;27766;52.174;5.456;2023-05-10T00:11:40;40.72;;;22.58;;
42110;SDS011;27766;52.174;5.456;2023-05-10T00:14:07;33.45;;;21.77;;
42110;SDS011;27766;52.174;5.456;2023-05-10T00:16:34;38.10;;;21.63;;
42110;SDS011;27766;52.174;5.456;2023-05-10T00:19:02;38.88;;;22.50;;
42110;SDS011;27766;52.174;5.456;2023-05-10T00:21:29;37.25;;;22.40;;
42110;SDS011;27766;52.174;5.456;2023-05-10T00:23:56;36.33;;;21.38;;
42110;SDS011;27766;52.174;5.456;2023-05-10T00:26:23;37.33;;;21.48;;
42110;SDS011;27766;52.174;5.456;2023-05-10T00:28:50;33.13;;;20.45;;
42110;SDS011;27766;52.174;5.456;2023-05-10T00:31:17;38.95;;;22.25;;
42110;SDS011;27766;52.174;5.456;2023-05-10T00:33:45;40.50;;;22.38;;
42110;SDS011;27766;52.174;5.456;2023-05-10T00:36:12;29.42;;;20.88;;
42110;SDS011;27766;52.174;5.456;2023-05-10T00:38:39;34.70;;;21.48;;
42110;SDS011;27766;52.174;5.456;2023-05-10T00:41:07;35.58;;;21.50;;
42110;SDS011;27766;52.174;5.456;2023-05-10T00:43:34;40.10;;;23.63;;
42110;SDS011;27766;52.174;5.456;2023-05-10T00:46:02;39.38;;;23.20;;
42110;SDS011;27766;52.174;5.456;2023-05-10T00:48:30;38.60;;;22.33;;
42110;SDS011;27766;52.174;5.456;2023-05-10T00:50:58;42.58;;;23.83;;
42110;SDS011;27766;52.174;5.456;2023-05-10T00:53:25;46.58;;;25.05;;
42110;SDS011;27766;52.174;5.456;2023-05-10T00:55:53;56.42;;;26.77;;
42110;SDS011;27766;52.174;5.456;2023-05-10T00:58:20;42.20;;;24.38;;
42110;SDS011;27766;52.174;5.456;2023-05-10T01:00:49;44.70;;;26.48;;
42110;SDS011;27766;52.174;5.456;2023-05-10T01:03:19;49.30;;;27.10;;
42110;SDS011;27766;52.174;5.456;2023-05-10T01:05:47;48.28;;;29.33;;
42110;SDS011;27766;52.174;5.456;2023-05-10T01:08:14;57.90;;;27.42;;
42110;SDS011;27766;52.174;5.456;2023-05-10T01:10:42;50.28;;;29.50;;
42110;SDS011;27766;52.174;5.456;2023-05-10T01:13:10;51.42;;;30.00;;
42110;SDS011;27766;52.174;5.456;2023-05-10T01:15:39;69.70;;;32.63;;
42110;SDS011;27766;52.174;5.456;2023-05-10T01:18:07;60.67;;;34.40;;
42110;SDS011;27766;52.174;5.456;2023-05-10T01:20:37;64.35;;;34.33;;
42110;SDS011;27766;52.174;5.456;2023-05-10T01:34:09;75.32;;;35.05;;
42110;SDS011;27766;52.174;5.456;2023-05-10T01:36:43;71.13;;;36.42;;
42110;SDS011;27766;52.174;5.456;2023-05-10T01:42:16;69.43;;;34.50;;
42110;SDS011;27766;52.174;5.456;2023-05-10T01:44:53;66.05;;;36.65;;
42110;SDS011;27766;52.174;5.456;2023-05-10T01:47:35;67.45;;;36.78;;
42110;SDS011;27766;52.174;5.456;2023-05-10T01:50:10;63.88;;;35.28;;
42110;SDS011;27766;52.174;5.456;2023-05-10T01:52:44;67.68;;;37.13;;
42110;SDS011;27766;52.174;5.456;2023-05-10T01:55:16;71.25;;;36.67;;
42110;SDS011;27766;52.174;5.456;2023-05-10T01:57:47;73.78;;;37.75;;
42110;SDS011;27766;52.174;5.456;2023-05-10T02:00:19;85.03;;;36.28;;
42110;SDS011;27766;52.174;5.456;2023-05-10T02:02:47;67.82;;;37.13;;
42110;SDS011;27766;52.174;5.456;2023-05-10T02:05:16;73.28;;;36.00;;
42110;SDS011;27766;52.174;5.456;2023-05-10T02:07:44;70.85;;;36.55;;
42110;SDS011;27766;52.174;5.456;2023-05-10T02:10:12;72.95;;;37.25;;
42110;SDS011;27766;52.174;5.456;2023-05-10T02:12:42;78.35;;;38.50;;
42110;SDS011;27766;52.174;5.456;2023-05-10T02:15:11;80.22;;;37.08;;
42110;SDS011;27766;52.174;5.456;2023-05-10T02:17:42;70.07;;;35.17;;
42110;SDS011;27766;52.174;5.456;2023-05-10T02:20:10;72.80;;;38.47;;
42110;SDS011;27766;52.174;5.456;2023-05-10T02:22:39;72.03;;;36.88;;
42110;SDS011;27766;52.174;5.456;2023-05-10T02:25:08;67.00;;;36.67;;
42110;SDS011;27766;52.174;5.456;2023-05-10T02:27:39;73.82;;;36.72;;
42110;SDS011;27766;52.174;5.456;2023-05-10T02:30:08;67.75;;;37.13;;
42110;SDS011;27766;52.174;5.456;2023-05-10T02:32:37;70.53;;;36.08;;
42110;SDS011;27766;52.174;5.456;2023-05-10T02:35:05;69.82;;;37.45;;
42110;SDS011;27766;52.174;5.456;2023-05-10T02:37:34;76.00;;;38.67;;
42110;SDS011;27766;52.174;5.456;2023-05-10T02:40:03;81.72;;;38.72;;
42110;SDS011;27766;52.174;5.456;2023-05-10T02:42:33;80.25;;;36.90;;
42110;SDS011;27766;52.174;5.456;2023-05-10T02:45:05;77.82;;;36.17;;
42110;SDS011;27766;52.174;5.456;2023-05-10T02:47:37;78.38;;;37.55;;
42110;SDS011;27766;52.174;5.456;2023-05-10T02:50:05;68.60;;;37.88;;
42110;SDS011;27766;52.174;5.456;2023-05-10T02:52:51;84.20;;;37.97;;
42110;SDS011;27766;52.174;5.456;2023-05-10T02:55:21;81.93;;;37.80;;
42110;SDS011;27766;52.174;5.456;2023-05-10T02:57:53;67.60;;;34.65;;
42110;SDS011;27766;52.174;5.456;2023-05-10T03:00:25;73.97;;;37.35;;
42110;SDS011;27766;52.174;5.456;2023-05-10T03:02:52;80.97;;;35.85;;
42110;SDS011;27766;52.174;5.456;2023-05-10T03:05:20;84.97;;;37.35;;
42110;SDS011;27766;52.174;5.456;2023-05-10T03:07:47;80.38;;;36.42;;
42110;SDS011;27766;52.174;5.456;2023-05-10T03:10:15;69.35;;;36.55;;
42110;SDS011;27766;52.174;5.456;2023-05-10T03:15:42;70.25;;;35.83;;
42110;SDS011;27766;52.174;5.456;2023-05-10T03:18:29;71.68;;;33.75;;
42110;SDS011;27766;52.174;5.456;2023-05-10T03:21:04;83.38;;;37.17;;
42110;SDS011;27766;52.174;5.456;2023-05-10T03:23:34;68.00;;;35.83;;
42110;SDS011;27766;52.174;5.456;2023-05-10T03:26:07;74.05;;;36.83;;
42110;SDS011;27766;52.174;5.456;2023-05-10T03:28:35;82.07;;;39.30;;
42110;SDS011;27766;52.174;5.456;2023-05-10T03:31:04;75.35;;;37.58;;
42110;SDS011;27766;52.174;5.456;2023-05-10T03:33:32;81.43;;;37.60;;
42110;SDS011;27766;52.174;5.456;2023-05-10T03:36:00;84.20;;;38.35;;
42110;SDS011;27766;52.174;5.456;2023-05-10T03:38:27;79.97;;;36.95;;
42110;SDS011;27766;52.174;5.456;2023-05-10T03:40:56;84.38;;;38.47;;
42110;SDS011;27766;52.174;5.456;2023-05-10T03:43:23;89.72;;;39.30;;
42110;SDS011;27766;52.174;5.456;2023-05-10T03:45:50;93.35;;;40.17;;
42110;SDS011;27766;52.174;5.456;2023-05-10T03:48:17;90.50;;;38.20;;
42110;SDS011;27766;52.174;5.456;2023-05-10T03:50:44;89.80;;;37.53;;
42110;SDS011;27766;52.174;5.456;2023-05-10T03:53:12;106.65;;;38.92;;
42110;SDS011;27766;52.174;5.456;2023-05-10T03:55:39;93.82;;;38.92;;
42110;SDS011;27766;52.174;5.456;2023-05-10T03:58:06;80.10;;;39.08;;
42110;SDS011;27766;52.174;5.456;2023-05-10T04:00:37;91.50;;;40.42;;
42110;SDS011;27766;52.174;5.456;2023-05-10T04:03:04;100.50;;;38.05;;
42110;SDS011;27766;52.174;5.456;2023-05-10T04:05:31;77.13;;;38.10;;
42110;SDS011;27766;52.174;5.456;2023-05-10T04:07:58;94.10;;;40.78;;
42110;SDS011;27766;52.174;5.456;2023-05-10T04:10:25;92.85;;;39.88;;
42110;SDS011;27766;52.174;5.456;2023-05-10T04:12:52;100.10;;;41.45;;
42110;SDS011;27766;52.174;5.456;2023-05-10T04:15:20;94.72;;;42.30;;
42110;SDS011;27766;52.174;5.456;2023-05-10T04:17:47;97.75;;;41.53;;
42110;SDS011;27766;52.174;5.456;2023-05-10T04:20:14;92.07;;;40.63;;
42110;SDS011;27766;52.174;5.456;2023-05-10T04:22:42;87.55;;;41.85;;
42110;SDS011;27766;52.174;5.456;2023-05-10T04:25:09;99.88;;;42.67;;
42110;SDS011;27766;52.174;5.456;2023-05-10T04:27:36;100.68;;;42.97;;
42110;SDS011;27766;52.174;5.456;2023-05-10T04:30:04;98.20;;;43.65;;
42110;SDS011;27766;52.174;5.456;2023-05-10T04:32:32;92.00;;;42.42;;
42110;SDS011;27766;52.174;5.456;2023-05-10T04:34:59;106.18;;;43.08;;
42110;SDS011;27766;52.174;5.456;2023-05-10T04:37:26;98.28;;;42.45;;
42110;SDS011;27766;52.174;5.456;2023-05-10T04:39:53;104.38;;;44.13;;
42110;SDS011;27766;52.174;5.456;2023-05-10T04:42:20;92.15;;;41.45;;
42110;SDS011;27766;52.174;5.456;2023-05-10T04:44:48;118.95;;;43.67;;
42110;SDS011;27766;52.174;5.456;2023-05-10T04:47:15;106.50;;;42.67;;
42110;SDS011;27766;52.174;5.456;2023-05-10T04:49:43;106.80;;;46.03;;
42110;SDS011;27766;52.174;5.456;2023-05-10T04:52:10;113.55;;;42.58;;
42110;SDS011;27766;52.174;5.456;2023-05-10T04:54:38;109.22;;;44.95;;
42110;SDS011;27766;52.174;5.456;2023-05-10T04:57:08;96.95;;;40.67;;
42110;SDS011;27766;52.174;5.456;2023-05-10T04:59:35;87.18;;;39.28;;
42110;SDS011;27766;52.174;5.456;2023-05-10T05:02:04;95.65;;;40.05;;
42110;SDS011;27766;52.174;5.456;2023-05-10T05:04:32;86.75;;;39.75;;
42110;SDS011;27766;52.174;5.456;2023-05-10T05:06:59;105.43;;;43.75;;
42110;SDS011;27766;52.174;5.456;2023-05-10T05:09:26;84.35;;;39.67;;
42110;SDS011;27766;52.174;5.456;2023-05-10T05:11:54;99.65;;;40.55;;
42110;SDS011;27766;52.174;5.456;2023-05-10T05:14:21;98.80;;;42.10;;
42110;SDS011;27766;52.174;5.456;2023-05-10T05:16:48;97.13;;;40.25;;
42110;SDS011;27766;52.174;5.456;2023-05-10T05:19:16;100.30;;;45.38;;
42110;SDS011;27766;52.174;5.456;2023-05-10T05:21:43;103.00;;;44.20;;
42110;SDS011;27766;52.174;5.456;2023-05-10T05:24:10;102.38;;;45.75;;
42110;SDS011;27766;52.174;5.456;2023-05-10T05:26:39;112.32;;;45.80;;
42110;SDS011;27766;52.174;5.456;2023-05-10T05:29:06;94.88;;;39.92;;
42110;SDS011;27766;52.174;5.456;2023-05-10T05:31:33;85.53;;;41.05;;
42110;SDS011;27766;52.174;5.456;2023-05-10T05:34:00;84.15;;;38.08;;
42110;SDS011;27766;52.174;5.456;2023-05-10T05:36:28;76.95;;;37.25;;
42110;SDS011;27766;52.174;5.456;2023-05-10T05:38:55;82.95;;;39.60;;
42110;SDS011;27766;52.174;5.456;2023-05-10T05:41:22;93.38;;;38.88;;
42110;SDS011;27766;52.174;5.456;2023-05-10T05:43:51;81.60;;;39.25;;
42110;SDS011;27766;52.174;5.456;2023-05-10T05:46:18;74.20;;;37.70;;
42110;SDS011;27766;52.174;5.456;2023-05-10T05:48:45;77.70;;;39.63;;
42110;SDS011;27766;52.174;5.456;2023-05-10T05:51:13;88.72;;;42.20;;
42110;SDS011;27766;52.174;5.456;2023-05-10T05:53:40;86.70;;;40.78;;
42110;SDS011;27766;52.174;5.456;2023-05-10T05:56:07;81.15;;;38.58;;
42110;SDS011;27766;52.174;5.456;2023-05-10T05:58:35;75.68;;;39.25;;
42110;SDS011;27766;52.174;5.456;2023-05-10T06:01:03;86.15;;;40.70;;
42110;SDS011;27766;52.174;5.456;2023-05-10T06:03:30;81.95;;;38.30;;
42110;SDS011;27766;52.174;5.456;2023-05-10T06:05:57;76.88;;;38.97;;
42110;SDS011;27766;52.174;5.456;2023-05-10T06:08:24;80.50;;;37.65;;
42110;SDS011;27766;52.174;5.456;2023-05-10T06:10:52;66.22;;;36.67;;
42110;SDS011;27766;52.174;5.456;2023-05-10T06:13:19;84.25;;;37.92;;
42110;SDS011;27766;52.174;5.456;2023-05-10T06:15:46;75.20;;;35.60;;
42110;SDS011;27766;52.174;5.456;2023-05-10T06:18:13;76.00;;;37.88;;
42110;SDS011;27766;52.174;5.456;2023-05-10T06:20:41;73.93;;;34.67;;
42110;SDS011;27766;52.174;5.456;2023-05-10T06:23:08;77.05;;;35.10;;
42110;SDS011;27766;52.174;5.456;2023-05-10T06:25:35;71.80;;;34.85;;
42110;SDS011;27766;52.174;5.456;2023-05-10T06:28:03;86.82;;;34.30;;
42110;SDS011;27766;52.174;5.456;2023-05-10T06:30:31;65.88;;;32.40;;
42110;SDS011;27766;52.174;5.456;2023-05-10T06:32:58;57.47;;;30.00;;
42110;SDS011;27766;52.174;5.456;2023-05-10T06:35:26;68.25;;;30.45;;
42110;SDS011;27766;52.174;5.456;2023-05-10T06:37:53;49.30;;;25.95;;
42110;SDS011;27766;52.174;5.456;2023-05-10T06:40:20;53.75;;;27.52;;
42110;SDS011;27766;52.174;5.456;2023-05-10T06:42:47;51.05;;;27.85;;
42110;SDS011;27766;52.174;5.456;2023-05-10T06:45:16;47.53;;;27.27;;
42110;SDS011;27766;52.174;5.456;2023-05-10T06:47:44;41.90;;;23.65;;
42110;SDS011;27766;52.174;5.456;2023-05-10T06:50:12;46.38;;;24.77;;
42110;SDS011;27766;52.174;5.456;2023-05-10T06:52:39;41.75;;;23.58;;
42110;SDS011;27766;52.174;5.456;2023-05-10T06:55:06;40.13;;;23.35;;
42110;SDS011;27766;52.174;5.456;2023-05-10T06:57:34;40.25;;;22.25;;
42110;SDS011;27766;52.174;5.456;2023-05-10T07:00:01;39.20;;;22.33;;
42110;SDS011;27766;52.174;5.456;2023-05-10T07:02:31;34.30;;;20.98;;
42110;SDS011;27766;52.174;5.456;2023-05-10T07:04:58;32.53;;;19.98;;
42110;SDS011;27766;52.174;5.456;2023-05-10T07:07:29;37.75;;;20.25;;
42110;SDS011;27766;52.174;5.456;2023-05-10T07:09:56;35.33;;;20.25;;
42110;SDS011;27766;52.174;5.456;2023-05-10T07:12:24;35.28;;;19.27;;
42110;SDS011;27766;52.174;5.456;2023-05-10T07:14:52;33.53;;;17.33;;
42110;SDS011;27766;52.174;5.456;2023-05-10T07:17:19;28.80;;;17.17;;
42110;SDS011;27766;52.174;5.456;2023-05-10T07:19:47;29.98;;;17.95;;
42110;SDS011;27766;52.174;5.456;2023-05-10T07:22:14;27.95;;;16.23;;
42110;SDS011;27766;52.174;5.456;2023-05-10T07:24:43;26.08;;;16.13;;
42110;SDS011;27766;52.174;5.456;2023-05-10T07:27:10;30.52;;;17.25;;
42110;SDS011;27766;52.174;5.456;2023-05-10T07:29:38;28.42;;;16.75;;
42110;SDS011;27766;52.174;5.456;2023-05-10T07:32:05;29.38;;;17.33;;
42110;SDS011;27766;52.174;5.456;2023-05-10T07:34:32;35.33;;;17.60;;
42110;SDS011;27766;52.174;5.456;2023-05-10T07:37:00;26.92;;;15.77;;
42110;SDS011;27766;52.174;5.456;2023-05-10T07:39:27;32.00;;;15.45;;
42110;SDS011;27766;52.174;5.456;2023-05-10T07:41:54;26.13;;;13.88;;
42110;SDS011;27766;52.174;5.456;2023-05-10T07:44:22;27.33;;;16.45;;
42110;SDS011;27766;52.174;5.456;2023-05-10T07:46:51;23.15;;;15.88;;
42110;SDS011;27766;52.174;5.456;2023-05-10T07:49:19;28.08;;;15.88;;
42110;SDS011;27766;52.174;5.456;2023-05-10T07:51:46;22.67;;;13.55;;
42110;SDS011;27766;52.174;5.456;2023-05-10T07:54:13;24.27;;;13.55;;
42110;SDS011;27766;52.174;5.456;2023-05-10T07:56:41;21.50;;;13.90;;
42110;SDS011;27766;52.174;5.456;2023-05-10T07:59:16;22.50;;;12.98;;
42110;SDS011;27766;52.174;5.456;2023-05-10T08:01:44;20.55;;;12.48;;
42110;SDS011;27766;52.174;5.456;2023-05-10T08:04:11;21.45;;;13.43;;
42110;SDS011;27766;52.174;5.456;2023-05-10T08:06:39;26.67;;;13.30;;
42110;SDS011;27766;52.174;5.456;2023-05-10T08:09:07;21.00;;;12.68;;
42110;SDS011;27766;52.174;5.456;2023-05-10T08:11:35;24.48;;;12.65;;
42110;SDS011;27766;52.174;5.456;2023-05-10T08:14:02;27.88;;;14.77;;
42110;SDS011;27766;52.174;5.456;2023-05-10T08:16:29;20.30;;;12.73;;
42110;SDS011;27766;52.174;5.456;2023-05-10T08:18:56;22.10;;;12.85;;
42110;SDS011;27766;52.174;5.456;2023-05-10T08:21:24;27.25;;;12.60;;
42110;SDS011;27766;52.174;5.456;2023-05-10T08:23:51;20.25;;;11.10;;
42110;SDS011;27766;52.174;5.456;2023-05-10T08:26:18;20.88;;;12.45;;
42110;SDS011;27766;52.174;5.456;2023-05-10T08:28:45;18.80;;;13.27;;
42110;SDS011;27766;52.174;5.456;2023-05-10T08:31:13;17.92;;;12.60;;
42110;SDS011;27766;52.174;5.456;2023-05-10T08:33:40;23.83;;;13.40;;
42110;SDS011;27766;52.174;5.456;2023-05-10T08:36:10;22.20;;;12.77;;
42110;SDS011;27766;52.174;5.456;2023-05-10T08:38:37;14.27;;;10.45;;
42110;SDS011;27766;52.174;5.456;2023-05-10T08:41:04;19.33;;;11.65;;
42110;SDS011;27766;52.174;5.456;2023-05-10T08:43:33;16.55;;;10.65;;
42110;SDS011;27766;52.174;5.456;2023-05-10T08:46:02;16.13;;;9.75;;
42110;SDS011;27766;52.174;5.456;2023-05-10T08:48:34;14.63;;;9.85;;
42110;SDS011;27766;52.174;5.456;2023-05-10T08:51:02;16.08;;;8.27;;
42110;SDS011;27766;52.174;5.456;2023-05-10T08:53:31;13.27;;;8.55;;
42110;SDS011;27766;52.174;5.456;2023-05-10T08:56:02;15.32;;;9.57;;
42110;SDS011;27766;52.174;5.456;2023-05-10T08:58:30;21.58;;;9.02;;
42110;SDS011;27766;52.174;5.456;2023-05-10T09:00:58;15.10;;;8.93;;
42110;SDS011;27766;52.174;5.456;2023-05-10T09:03:27;13.45;;;10.23;;
42110;SDS011;27766;52.174;5.456;2023-05-10T09:05:55;19.00;;;12.05;;
42110;SDS011;27766;52.174;5.456;2023-05-10T09:08:25;17.15;;;10.63;;
42110;SDS011;27766;52.174;5.456;2023-05-10T09:10:54;18.40;;;10.70;;
42110;SDS011;27766;52.174;5.456;2023-05-10T09:13:22;16.02;;;10.52;;
42110;SDS011;27766;52.174;5.456;2023-05-10T09:15:49;14.90;;;9.02;;
42110;SDS011;27766;52.174;5.456;2023-05-10T09:18:17;11.32;;;8.32;;
42110;SDS011;27766;52.174;5.456;2023-05-10T09:20:45;8.07;;;6.65;;
42110;SDS011;27766;52.174;5.456;2023-05-10T09:23:12;8.05;;;6.60;;
42110;SDS011;27766;52.174;5.456;2023-05-10T09:25:41;12.73;;;6.72;;
42110;SDS011;27766;52.174;5.456;2023-05-10T09:28:08;8.95;;;6.38;;
42110;SDS011;27766;52.174;5.456;2023-05-10T09:30:36;11.20;;;6.32;;
42110;SDS011;27766;52.174;5.456;2023-05-10T09:33:03;13.57;;;6.60;;
42110;SDS011;27766;52.174;5.456;2023-05-10T09:35:32;10.45;;;6.03;;
42110;SDS011;27766;52.174;5.456;2023-05-10T09:38:01;10.48;;;6.38;;
42110;SDS011;27766;52.174;5.456;2023-05-10T09:40:31;9.77;;;6.72;;
42110;SDS011;27766;52.174;5.456;2023-05-10T09:43:02;5.63;;;2.90;;
42110;SDS011;27766;52.174;5.456;2023-05-10T09:45:31;3.07;;;2.43;;
42110;SDS011;27766;52.174;5.456;2023-05-10T09:48:03;5.40;;;3.47;;
42110;SDS011;27766;52.174;5.456;2023-05-10T09:50:31;3.65;;;2.70;;
42110;SDS011;27766;52.174;5.456;2023-05-10T09:52:59;4.38;;;2.85;;
42110;SDS011;27766;52.174;5.456;2023-05-10T09:55:43;5.10;;;3.03;;
42110;SDS011;27766;52.174;5.456;2023-05-10T09:58:13;5.97;;;3.58;;
42110;SDS011;27766;52.174;5.456;2023-05-10T10:00:42;4.70;;;2.90;;
42110;SDS011;27766;52.174;5.456;2023-05-10T10:03:14;5.60;;;2.67;;
42110;SDS011;27766;52.174;5.456;2023-05-10T10:05:43;4.93;;;2.83;;
42110;SDS011;27766;52.174;5.456;2023-05-10T10:08:12;6.72;;;3.80;;
42110;SDS011;27766;52.174;5.456;2023-05-10T10:10:39;4.90;;;3.92;;
42110;SDS011;27766;52.174;5.456;2023-05-10T10:13:07;4.68;;;3.42;;
42110;SDS011;27766;52.174;5.456;2023-05-10T10:15:35;5.43;;;3.72;;
42110;SDS011;27766;52.174;5.456;2023-05-10T10:18:03;4.95;;;3.03;;
42110;SDS011;27766;52.174;5.456;2023-05-10T10:20:33;5.50;;;3.17;;
42110;SDS011;27766;52.174;5.456;2023-05-10T10:23:01;5.85;;;3.72;;
42110;SDS011;27766;52.174;5.456;2023-05-10T10:25:29;5.30;;;2.92;;
42110;SDS011;27766;52.174;5.456;2023-05-10T10:28:08;6.47;;;4.60;;
42110;SDS011;27766;52.174;5.456;2023-05-10T10:30:45;4.80;;;3.70;;
42110;SDS011;27766;52.174;5.456;2023-05-10T10:33:24;5.28;;;4.07;;
42110;SDS011;27766;52.174;5.456;2023-05-10T10:35:55;7.20;;;5.00;;
42110;SDS011;27766;52.174;5.456;2023-05-10T10:38:25;8.63;;;4.50;;
42110;SDS011;27766;52.174;5.456;2023-05-10T10:41:30;8.07;;;5.75;;
42110;SDS011;27766;52.174;5.456;2023-05-10T10:49:43;6.50;;;5.00;;
42110;SDS011;27766;52.174;5.456;2023-05-10T10:55:01;7.07;;;5.18;;
42110;SDS011;27766;52.174;5.456;2023-05-10T11:02:51;8.98;;;5.13;;
42110;SDS011;27766;52.174;5.456;2023-05-10T11:07:56;6.22;;;5.00;;
42110;SDS011;27766;52.174;5.456;2023-05-10T11:10:25;7.88;;;5.65;;
42110;SDS011;27766;52.174;5.456;2023-05-10T11:13:02;7.80;;;5.28;;
42110;SDS011;27766;52.174;5.456;2023-05-10T11:15:33;8.43;;;4.50;;
42110;SDS011;27766;52.174;5.456;2023-05-10T11:18:16;6.10;;;4.57;;
42110;SDS011;27766;52.174;5.456;2023-05-10T11:21:00;5.82;;;4.97;;
42110;SDS011;27766;52.174;5.456;2023-05-10T11:26:10;6.32;;;4.03;;
42110;SDS011;27766;52.174;5.456;2023-05-10T11:28:41;7.15;;;5.43;;
42110;SDS011;27766;52.174;5.456;2023-05-10T11:31:16;7.13;;;4.93;;
42110;SDS011;27766;52.174;5.456;2023-05-10T11:33:51;9.30;;;4.50;;
42110;SDS011;27766;52.174;5.456;2023-05-10T11:36:20;7.18;;;4.22;;
42110;SDS011;27766;52.174;5.456;2023-05-10T11:38:50;8.63;;;4.57;;
42110;SDS011;27766;52.174;5.456;2023-05-10T11:41:17;7.85;;;4.65;;
42110;SDS011;27766;52.174;5.456;2023-05-10T11:43:54;5.72;;;4.30;;
42110;SDS011;27766;52.174;5.456;2023-05-10T11:46:24;15.07;;;4.88;;
42110;SDS011;27766;52.174;5.456;2023-05-10T11:49:00;8.65;;;3.65;;
42110;SDS011;27766;52.174;5.456;2023-05-10T11:51:32;6.93;;;3.97;;
42110;SDS011;27766;52.174;5.456;2023-05-10T11:54:01;6.18;;;3.67;;
42110;SDS011;27766;52.174;5.456;2023-05-10T11:56:32;5.75;;;3.90;;
42110;SDS011;27766;52.174;5.456;2023-05-10T11:58:59;6.30;;;4.28;;
42110;SDS011;27766;52.174;5.456;2023-05-10T12:01:29;6.28;;;4.63;;
42110;SDS011;27766;52.174;5.456;2023-05-10T12:03:57;7.07;;;4.88;;
42110;SDS011;27766;52.174;5.456;2023-05-10T12:06:28;6.80;;;4.15;;
42110;SDS011;27766;52.174;5.456;2023-05-10T12:08:58;7.15;;;4.40;;
42110;SDS011;27766;52.174;5.456;2023-05-10T12:11:25;6.07;;;3.97;;
42110;SDS011;27766;52.174;5.456;2023-05-10T12:13:54;5.28;;;3.65;;
42110;SDS011;27766;52.174;5.456;2023-05-10T12:16:24;8.43;;;4.30;;
42110;SDS011;27766;52.174;5.456;2023-05-10T12:18:53;14.02;;;4.47;;
42110;SDS011;27766;52.174;5.456;2023-05-10T12:21:23;6.75;;;3.83;;
42110;SDS011;27766;52.174;5.456;2023-05-10T12:23:52;4.20;;;3.10;;
42110;SDS011;27766;52.174;5.456;2023-05-10T12:26:23;6.18;;;3.47;;
42110;SDS011;27766;52.174;5.456;2023-05-10T12:28:53;4.97;;;3.03;;
42110;SDS011;27766;52.174;5.456;2023-05-10T12:31:20;4.72;;;3.13;;
42110;SDS011;27766;52.174;5.456;2023-05-10T12:33:48;5.50;;;2.60;;
42110;SDS011;27766;52.174;5.456;2023-05-10T12:36:16;5.43;;;3.00;;
42110;SDS011;27766;52.174;5.456;2023-05-10T12:38:50;3.90;;;2.20;;
42110;SDS011;27766;52.174;5.456;2023-05-10T12:41:18;4.30;;;2.50;;
42110;SDS011;27766;52.174;5.456;2023-05-10T12:43:45;4.05;;;2.80;;
42110;SDS011;27766;52.174;5.456;2023-05-10T12:46:13;4.13;;;3.05;;
42110;SDS011;27766;52.174;5.456;2023-05-10T12:48:42;3.25;;;2.42;;
42110;SDS011;27766;52.174;5.456;2023-05-10T12:51:11;3.67;;;2.38;;
42110;SDS011;27766;52.174;5.456;2023-05-10T12:53:44;3.97;;;2.20;;
42110;SDS011;27766;52.174;5.456;2023-05-10T12:56:15;4.72;;;2.65;;
42110;SDS011;27766;52.174;5.456;2023-05-10T12:58:43;3.90;;;2.40;;
42110;SDS011;27766;52.174;5.456;2023-05-10T13:01:14;4.95;;;1.70;;
42110;SDS011;27766;52.174;5.456;2023-05-10T13:03:44;2.40;;;1.50;;
42110;SDS011;27766;52.174;5.456;2023-05-10T13:06:12;2.65;;;1.52;;
42110;SDS011;27766;52.174;5.456;2023-05-10T13:08:40;2.00;;;1.25;;
42110;SDS011;27766;52.174;5.456;2023-05-10T13:11:07;6.15;;;1.67;;
42110;SDS011;27766;52.174;5.456;2023-05-10T13:13:34;1.98;;;1.60;;
42110;SDS011;27766;52.174;5.456;2023-05-10T13:16:02;3.00;;;1.70;;
42110;SDS011;27766;52.174;5.456;2023-05-10T13:18:29;2.75;;;1.40;;
42110;SDS011;27766;52.174;5.456;2023-05-10T13:20:56;2.15;;;1.25;;
42110;SDS011;27766;52.174;5.456;2023-05-10T13:23:23;1.27;;;1.15;;
42110;SDS011;27766;52.174;5.456;2023-05-10T13:25:50;6.15;;;2.10;;
42110;SDS011;27766;52.174;5.456;2023-05-10T13:28:17;2.00;;;1.67;;
42110;SDS011;27766;52.174;5.456;2023-05-10T13:30:44;4.05;;;2.13;;
42110;SDS011;27766;52.174;5.456;2023-05-10T13:33:11;2.95;;;1.48;;
42110;SDS011;27766;52.174;5.456;2023-05-10T13:35:39;3.65;;;1.90;;
42110;SDS011;27766;52.174;5.456;2023-05-10T13:38:06;3.05;;;2.13;;
42110;SDS011;27766;52.174;5.456;2023-05-10T13:40:34;8.32;;;5.50;;
42110;SDS011;27766;52.174;5.456;2023-05-10T13:43:02;9.43;;;6.00;;
42110;SDS011;27766;52.174;5.456;2023-05-10T13:45:30;10.95;;;6.32;;
42110;SDS011;27766;52.174;5.456;2023-05-10T13:47:57;9.73;;;5.75;;
42110;SDS011;27766;52.174;5.456;2023-05-10T13:50:24;9.40;;;5.45;;
42110;SDS011;27766;52.174;5.456;2023-05-10T13:52:51;9.48;;;5.85;;
42110;SDS011;27766;52.174;5.456;2023-05-10T13:55:18;10.63;;;6.63;;
42110;SDS011;27766;52.174;5.456;2023-05-10T13:57:46;11.50;;;6.63;;
42110;SDS011;27766;52.174;5.456;2023-05-10T14:00:13;9.52;;;7.32;;
42110;SDS011;27766;52.174;5.456;2023-05-10T14:02:40;16.55;;;7.85;;
42110;SDS011;27766;52.174;5.456;2023-05-10T14:05:07;13.20;;;7.68;;
42110;SDS011;27766;52.174;5.456;2023-05-10T14:07:35;13.80;;;7.40;;
42110;SDS011;27766;52.174;5.456;2023-05-10T14:10:03;12.27;;;7.88;;
42110;SDS011;27766;52.174;5.456;2023-05-10T14:12:30;13.13;;;7.22;;
42110;SDS011;27766;52.174;5.456;2023-05-10T14:14:57;11.63;;;7.35;;
42110;SDS011;27766;52.174;5.456;2023-05-10T14:17:25;10.52;;;7.20;;
42110;SDS011;27766;52.174;5.456;2023-05-10T14:19:52;9.88;;;6.82;;
42110;SDS011;27766;52.174;5.456;2023-05-10T14:22:19;12.85;;;6.82;;
42110;SDS011;27766;52.174;5.456;2023-05-10T14:24:46;11.43;;;7.45;;
42110;SDS011;27766;52.174;5.456;2023-05-10T14:27:14;10.00;;;7.78;;
42110;SDS011;27766;52.174;5.456;2023-05-10T14:29:42;11.23;;;7.10;;
42110;SDS011;27766;52.174;5.456;2023-05-10T14:32:09;12.95;;;7.50;;
42110;SDS011;27766;52.174;5.456;2023-05-10T14:34:37;11.38;;;7.38;;
42110;SDS011;27766;52.174;5.456;2023-05-10T14:37:04;14.45;;;7.20;;
42110;SDS011;27766;52.174;5.456;2023-05-10T14:39:31;10.23;;;6.88;;
42110;SDS011;27766;52.174;5.456;2023-05-10T14:41:59;12.07;;;6.95;;
42110;SDS011;27766;52.174;5.456;2023-05-10T14:44:26;12.65;;;7.32;;
42110;SDS011;27766;52.174;5.456;2023-05-10T14:46:54;10.57;;;7.25;;
42110;SDS011;27766;52.174;5.456;2023-05-10T14:49:22;10.98;;;7.32;;
42110;SDS011;27766;52.174;5.456;2023-05-10T14:51:51;12.57;;;7.38;;
42110;SDS011;27766;52.174;5.456;2023-05-10T14:54:18;11.32;;;7.32;;
42110;SDS011;27766;52.174;5.456;2023-05-10T14:56:46;14.10;;;7.20;;
42110;SDS011;27766;52.174;5.456;2023-05-10T14:59:13;13.75;;;7.90;;
42110;SDS011;27766;52.174;5.456;2023-05-10T15:01:40;10.63;;;7.30;;
42110;SDS011;27766;52.174;5.456;2023-05-10T15:04:09;13.07;;;7.65;;
42110;SDS011;27766;52.174;5.456;2023-05-10T15:06:36;13.93;;;9.20;;
42110;SDS011;27766;52.174;5.456;2023-05-10T15:09:04;11.25;;;8.48;;
42110;SDS011;27766;52.174;5.456;2023-05-10T15:11:31;13.63;;;8.65;;
42110;SDS011;27766;52.174;5.456;2023-05-10T15:13:58;15.25;;;9.40;;
42110;SDS011;27766;52.174;5.456;2023-05-10T15:16:25;16.10;;;9.32;;